createdAt,value
2019-05-03T00:02:53.067Z,9.40
2019-05-03T00:05:32.966Z,11.28
2019-05-03T00:08:08.208Z,10.55
2019-05-03T00:10:42.724Z,9.75
2019-05-03T00:13:16.499Z,11.73
2019-05-03T00:15:58.738Z,10.35
2019-05-03T00:18:32.775Z,11.93
2019-05-03T00:21:07.307Z,11.93
2019-05-03T00:23:41.759Z,10.78
2019-05-03T00:26:16.055Z,11.35
2019-05-03T00:28:49.317Z,12.20
2019-05-03T00:31:22.819Z,11.30
2019-05-03T00:34:02.116Z,11.38
2019-05-03T00:36:46.323Z,9.83
2019-05-03T00:39:42.006Z,12.53
2019-05-03T00:42:15.371Z,12.00
2019-05-03T00:47:22.057Z,12.37
2019-05-03T00:49:54.814Z,8.10
2019-05-03T00:52:27.905Z,10.58
2019-05-03T00:57:32.328Z,11.00
2019-05-03T01:00:06.421Z,11.53
2019-05-03T01:02:39.595Z,11.88
2019-05-03T01:05:12.572Z,11.10
2019-05-03T01:07:45.741Z,13.83
2019-05-03T01:10:19.329Z,12.60
2019-05-03T01:12:53.117Z,12.50
2019-05-03T01:16:03.935Z,11.93
2019-05-03T01:18:37.707Z,11.93
2019-05-03T01:21:11.727Z,13.53
2019-05-03T01:23:45.600Z,12.03
2019-05-03T01:26:18.814Z,12.33
2019-05-03T01:28:52.098Z,11.50
2019-05-03T01:31:25.403Z,12.53
2019-05-03T01:33:58.400Z,12.63
2019-05-03T01:36:32.117Z,12.18
2019-05-03T01:39:07.177Z,11.95
2019-05-03T01:41:41.704Z,11.83
2019-05-03T01:44:15.273Z,12.75
2019-05-03T01:49:43.481Z,10.90
2019-05-03T01:52:41.957Z,12.63
2019-05-03T01:55:15.986Z,12.30
2019-05-03T01:57:49.166Z,12.47
2019-05-03T02:00:26.536Z,12.35
2019-05-03T02:03:08.288Z,12.03
2019-05-03T02:05:52.283Z,12.10
2019-05-03T02:08:25.593Z,11.33
2019-05-03T02:10:58.145Z,12.75
2019-05-03T02:13:32.114Z,11.68
2019-05-03T02:16:05.364Z,13.48
2019-05-03T02:18:38.798Z,9.23
2019-05-03T02:21:12.364Z,10.25
2019-05-03T02:23:45.748Z,10.30
2019-05-03T02:28:52.597Z,10.70
2019-05-03T02:31:25.480Z,10.10
2019-05-03T02:33:58.645Z,11.00
2019-05-03T02:39:06.951Z,10.68
2019-05-03T02:41:40.027Z,10.28
2019-05-03T02:44:15.644Z,10.48
2019-05-03T02:47:06.079Z,11.43
2019-05-03T02:49:56.393Z,11.12
2019-05-03T02:52:37.161Z,10.18
2019-05-03T02:55:16.056Z,10.93
2019-05-03T02:57:48.814Z,10.93
2019-05-03T03:00:45.354Z,11.57
2019-05-03T03:03:18.231Z,11.60
2019-05-03T03:05:55.787Z,11.43
2019-05-03T03:08:32.950Z,12.98
2019-05-03T03:11:08.049Z,11.80
2019-05-03T03:13:41.689Z,11.57
2019-05-03T03:16:15.865Z,11.60
2019-05-03T03:18:55.859Z,12.55
2019-05-03T03:21:36.308Z,11.88
2019-05-03T03:24:17.256Z,13.80
2019-05-03T03:26:56.520Z,12.20
2019-05-03T03:29:31.445Z,12.55
2019-05-03T03:32:38.689Z,12.68
2019-05-03T03:35:22.458Z,12.93
2019-05-03T03:37:56.164Z,12.93
2019-05-03T03:43:06.533Z,11.38
2019-05-03T03:45:46.505Z,12.25
2019-05-03T03:48:26.470Z,13.28
2019-05-03T03:51:00.535Z,13.35
2019-05-03T03:53:35.793Z,10.15
2019-05-03T03:56:15.880Z,13.40
2019-05-03T03:58:55.369Z,11.15
2019-05-03T04:01:28.741Z,12.93
2019-05-03T04:04:05.550Z,12.07
2019-05-03T04:06:41.486Z,11.60
2019-05-03T04:09:17.441Z,13.38
2019-05-03T04:11:56.420Z,11.63
2019-05-03T04:14:41.801Z,11.00
2019-05-03T04:17:36.109Z,11.10
2019-05-03T04:20:10.058Z,10.63
2019-05-03T04:22:45.343Z,10.90
2019-05-03T04:25:18.166Z,11.93
2019-05-03T04:27:55.938Z,10.00
2019-05-03T04:30:28.898Z,11.25
2019-05-03T04:33:02.281Z,10.68
2019-05-03T04:38:08.991Z,11.28
2019-05-03T04:40:45.389Z,12.00
2019-05-03T04:43:18.354Z,11.50
2019-05-03T04:48:56.027Z,10.15
2019-05-03T04:51:29.693Z,9.78
2019-05-03T04:54:25.019Z,10.68
2019-05-03T04:56:57.618Z,10.93
2019-05-03T04:59:31.543Z,11.33
2019-05-03T05:02:06.161Z,9.53
2019-05-03T05:04:41.418Z,10.15
2019-05-03T05:07:15.511Z,12.15
2019-05-03T05:09:49.873Z,11.68
2019-05-03T05:12:25.163Z,10.95
2019-05-03T05:14:59.079Z,11.28
2019-05-03T05:17:49.963Z,10.82
2019-05-03T05:20:41.902Z,9.53
2019-05-03T05:23:16.097Z,10.90
2019-05-03T05:25:58.751Z,10.03
2019-05-03T05:29:00.424Z,9.50
2019-05-03T05:31:33.473Z,9.65
2019-05-03T05:34:08.812Z,9.93
2019-05-03T05:36:41.486Z,9.70
2019-05-03T05:39:18.760Z,10.72
2019-05-03T05:41:52.467Z,10.32
2019-05-03T05:44:26.303Z,9.25
2019-05-03T05:47:16.832Z,10.75
2019-05-03T05:50:00.305Z,9.35
2019-05-03T05:52:34.625Z,8.85
2019-05-03T05:55:30.344Z,9.13
2019-05-03T05:58:19.503Z,7.60
2019-05-03T06:00:55.945Z,9.45
2019-05-03T06:03:29.363Z,10.50
2019-05-03T06:08:58.443Z,9.40
2019-05-03T06:11:55.363Z,9.18
2019-05-03T06:14:41.789Z,7.65
2019-05-03T06:17:26.388Z,9.78
2019-05-03T06:20:24.595Z,10.13
2019-05-03T06:23:05.749Z,8.65
2019-05-03T06:25:41.983Z,10.15
2019-05-03T06:28:35.321Z,10.70
2019-05-03T06:31:25.299Z,11.05
2019-05-03T06:33:59.260Z,10.72
2019-05-03T06:36:32.547Z,10.08
2019-05-03T06:39:08.520Z,11.57
2019-05-03T06:41:44.480Z,8.50
2019-05-03T06:44:19.267Z,6.70
2019-05-03T06:46:55.134Z,7.20
2019-05-03T06:49:29.099Z,5.85
2019-05-03T06:52:02.173Z,6.97
2019-05-03T06:54:37.672Z,4.33
2019-05-03T06:57:14.680Z,4.60
2019-05-03T07:00:15.724Z,4.90
2019-05-03T07:03:07.614Z,4.30
2019-05-03T07:05:58.866Z,4.37
2019-05-03T07:08:51.029Z,3.90
2019-05-03T07:11:24.859Z,4.40
2019-05-03T07:13:58.605Z,4.05
2019-05-03T07:16:31.587Z,3.92
2019-05-03T07:19:04.681Z,3.75
2019-05-03T07:24:08.699Z,4.00
2019-05-03T07:26:41.824Z,3.62
2019-05-03T07:31:45.226Z,2.77
2019-05-03T07:34:18.133Z,3.45
2019-05-03T07:36:51.551Z,3.83
2019-05-03T07:39:24.985Z,3.72
2019-05-03T07:44:29.389Z,4.15
2019-05-03T07:47:04.172Z,3.72
2019-05-03T07:49:37.319Z,3.30
2019-05-03T07:54:45.213Z,2.75
2019-05-03T07:57:32.611Z,3.45
2019-05-03T08:00:06.824Z,3.67
2019-05-03T08:02:40.112Z,4.05
2019-05-03T08:05:15.438Z,3.73
2019-05-03T08:07:48.562Z,3.80
2019-05-03T08:10:21.786Z,4.10
2019-05-03T08:12:55.427Z,3.72
2019-05-03T08:15:28.777Z,3.52
2019-05-03T08:20:35.037Z,3.65
2019-05-03T08:23:08.209Z,3.87
2019-05-03T08:25:41.492Z,3.70
2019-05-03T08:28:14.780Z,4.00
2019-05-03T08:33:47.375Z,4.50
2019-05-03T08:36:21.245Z,4.22
2019-05-03T08:38:56.352Z,4.28
2019-05-03T08:41:31.034Z,4.15
2019-05-03T08:44:05.343Z,4.12
2019-05-03T08:46:38.648Z,4.00
2019-05-03T08:51:44.374Z,3.17
2019-05-03T08:54:18.830Z,3.90
2019-05-03T08:56:52.221Z,4.10
2019-05-03T09:02:03.590Z,4.12
2019-05-03T09:04:37.904Z,3.92
2019-05-03T09:07:09.177Z,3.95
2019-05-03T09:10:12.042Z,3.33
2019-05-03T09:13:03.282Z,3.35
2019-05-03T09:15:35.166Z,3.27
2019-05-03T09:20:40.060Z,2.50
2019-05-03T09:23:14.721Z,3.15
2019-05-03T09:25:48.002Z,2.80
2019-05-03T09:28:21.757Z,2.58
2019-05-03T09:30:55.593Z,2.35
2019-05-03T09:33:28.509Z,2.20
2019-05-03T09:36:01.681Z,2.25
2019-05-03T09:38:36.034Z,2.02
2019-05-03T09:41:09.357Z,1.77
2019-05-03T09:46:14.758Z,1.20
2019-05-03T09:48:48.018Z,1.20
2019-05-03T09:51:20.685Z,1.47
2019-05-03T09:53:57.664Z,1.22
2019-05-03T09:57:08.349Z,1.47
2019-05-03T09:59:54.264Z,0.95
2019-05-03T10:02:17.825Z,1.60
2019-05-03T10:04:51.133Z,0.90
2019-05-03T10:09:59.296Z,1.22
2019-05-03T10:12:33.302Z,1.10
2019-05-03T10:15:07.220Z,1.30
2019-05-03T10:17:59.539Z,0.78
2019-05-03T10:20:34.850Z,1.12
2019-05-03T10:23:27.652Z,1.02
2019-05-03T10:26:01.625Z,0.90
2019-05-03T10:28:35.022Z,1.05
2019-05-03T10:31:08.402Z,0.70
2019-05-03T10:33:49.306Z,0.98
2019-05-03T10:36:24.790Z,0.80
2019-05-03T10:38:58.276Z,0.90
2019-05-03T10:41:31.946Z,0.83
2019-05-03T10:44:06.107Z,1.00
2019-05-03T10:46:39.821Z,0.80
2019-05-03T10:49:15.309Z,1.02
2019-05-03T10:51:54.866Z,1.10
2019-05-03T10:54:28.368Z,1.10
2019-05-03T10:57:10.974Z,1.32
2019-05-03T10:59:44.852Z,1.10
2019-05-03T11:02:42.378Z,1.00
2019-05-03T11:05:15.633Z,0.90
2019-05-03T11:07:48.912Z,1.20
2019-05-03T11:10:22.826Z,0.95
2019-05-03T11:12:56.226Z,1.05
2019-05-03T11:15:29.337Z,1.10
2019-05-03T11:18:02.522Z,0.90
2019-05-03T11:20:39.510Z,0.90
2019-05-03T11:23:14.479Z,0.87
2019-05-03T11:25:46.707Z,1.00
2019-05-03T11:28:25.044Z,1.10
2019-05-03T11:31:02.190Z,1.17
2019-05-03T11:33:40.526Z,1.33
2019-05-03T11:36:20.282Z,1.30
2019-05-03T11:38:53.435Z,1.30
2019-05-03T11:41:32.093Z,1.67
2019-05-03T11:44:21.817Z,1.10
2019-05-03T11:46:55.613Z,1.23
2019-05-03T11:49:28.831Z,1.17
2019-05-03T11:52:01.819Z,1.17
2019-05-03T11:54:35.934Z,1.17
2019-05-03T11:57:15.731Z,1.53
2019-05-03T11:59:48.959Z,1.40
2019-05-03T12:02:41.153Z,1.50
2019-05-03T12:05:29.125Z,1.60
2019-05-03T12:08:02.079Z,1.67
2019-05-03T12:15:44.833Z,1.47
2019-05-03T12:20:51.315Z,2.15
2019-05-03T12:23:25.846Z,1.50
2019-05-03T12:25:59.973Z,1.90
2019-05-03T12:28:35.300Z,1.60
2019-05-03T12:31:07.920Z,1.87
2019-05-03T12:33:41.357Z,1.57
2019-05-03T12:36:15.545Z,1.40
2019-05-03T12:38:48.676Z,1.40
2019-05-03T12:41:22.284Z,1.80
2019-05-03T12:43:55.656Z,1.50
2019-05-03T12:46:29.099Z,1.45
2019-05-03T12:49:05.118Z,1.62
2019-05-03T12:51:37.941Z,1.72
2019-05-03T12:54:11.312Z,1.82
2019-05-03T12:56:45.388Z,2.00
2019-05-03T12:59:26.755Z,1.80
2019-05-03T13:02:15.380Z,1.60
2019-05-03T13:04:52.081Z,1.60
2019-05-03T13:07:46.822Z,1.77
2019-05-03T13:10:23.198Z,1.85
2019-05-03T13:12:56.063Z,2.15
2019-05-03T13:15:29.514Z,1.67
2019-05-03T13:18:02.153Z,2.05
2019-05-03T13:20:36.134Z,2.10
2019-05-03T13:23:09.342Z,1.47
2019-05-03T13:25:44.620Z,1.57
2019-05-03T13:28:17.952Z,2.55
2019-05-03T13:30:51.706Z,1.70
2019-05-03T13:33:25.749Z,2.00
2019-05-03T13:35:59.937Z,1.57
2019-05-03T13:38:34.931Z,1.52
2019-05-03T13:41:08.541Z,1.55
2019-05-03T13:46:12.226Z,2.20
2019-05-03T13:48:48.888Z,2.20
2019-05-03T13:51:20.070Z,2.30
2019-05-03T13:53:55.080Z,2.00
2019-05-03T13:56:28.940Z,2.33
2019-05-03T13:59:04.534Z,2.02
2019-05-03T14:01:37.503Z,2.37
2019-05-03T14:04:10.877Z,2.08
2019-05-03T14:06:44.864Z,1.90
2019-05-03T14:09:18.574Z,2.52
2019-05-03T14:11:51.515Z,2.08
2019-05-03T14:14:25.840Z,2.27
2019-05-03T14:16:59.007Z,2.12
2019-05-03T14:19:36.867Z,1.85
2019-05-03T14:22:12.480Z,2.10
2019-05-03T14:24:49.672Z,1.92
2019-05-03T14:27:22.766Z,1.90
2019-05-03T14:29:56.148Z,2.08
2019-05-03T14:32:29.242Z,2.00
2019-05-03T14:35:02.938Z,2.20
2019-05-03T14:37:47.482Z,1.72
2019-05-03T14:40:25.088Z,2.10
2019-05-03T14:42:59.764Z,2.50
2019-05-03T14:45:34.993Z,2.20
2019-05-03T14:48:08.668Z,2.25
2019-05-03T14:50:41.992Z,2.08
2019-05-03T14:56:00.083Z,1.95
2019-05-03T14:59:07.890Z,2.10
2019-05-03T15:01:55.228Z,2.20
2019-05-03T15:04:29.849Z,2.70
2019-05-03T15:07:21.525Z,2.47
2019-05-03T15:09:55.323Z,2.17
2019-05-03T15:12:28.884Z,2.20
2019-05-03T15:17:35.066Z,1.47
2019-05-03T15:20:09.936Z,2.20
2019-05-03T15:22:45.378Z,3.92
2019-05-03T15:25:18.747Z,2.47
2019-05-03T15:27:53.006Z,2.35
2019-05-03T15:30:26.054Z,2.37
2019-05-03T15:33:01.003Z,2.22
2019-05-03T15:35:35.118Z,2.08
2019-05-03T15:38:08.971Z,2.17
2019-05-03T15:40:42.125Z,2.65
2019-05-03T15:43:45.386Z,2.17
2019-05-03T15:46:40.562Z,2.45
2019-05-03T15:49:15.249Z,2.40
2019-05-03T15:51:48.359Z,2.43
2019-05-03T15:54:22.488Z,2.10
2019-05-03T15:56:55.879Z,2.53
2019-05-03T15:59:28.625Z,2.80
2019-05-03T16:02:01.886Z,2.17
2019-05-03T16:04:35.687Z,2.13
2019-05-03T16:07:10.299Z,2.67
2019-05-03T16:09:44.557Z,2.60
2019-05-03T16:12:17.425Z,2.83
2019-05-03T16:17:24.384Z,3.20
2019-05-03T16:19:58.561Z,2.80
2019-05-03T16:22:32.136Z,2.30
2019-05-03T16:25:05.709Z,2.50
2019-05-03T16:27:52.949Z,2.50
2019-05-03T16:30:45.446Z,2.77
2019-05-03T16:33:26.992Z,2.37
2019-05-03T16:35:54.880Z,2.10
2019-05-03T16:38:28.030Z,2.70
2019-05-03T16:41:00.970Z,2.53
2019-05-03T16:46:05.618Z,2.05
2019-05-03T16:48:39.099Z,2.57
2019-05-03T16:51:12.224Z,2.53
2019-05-03T16:53:44.951Z,2.67
2019-05-03T16:56:18.881Z,2.47
2019-05-03T16:58:52.734Z,2.67
2019-05-03T17:01:25.745Z,2.13
2019-05-03T17:04:17.353Z,2.77
2019-05-03T17:06:59.605Z,2.47
2019-05-03T17:12:38.197Z,2.80
2019-05-03T17:15:11.345Z,2.63
2019-05-03T17:17:45.213Z,3.85
2019-05-03T17:20:18.613Z,3.37
2019-05-03T17:22:52.711Z,2.80
2019-05-03T17:25:26.378Z,2.90
2019-05-03T17:28:00.097Z,2.80
2019-05-03T17:30:35.153Z,3.95
2019-05-03T17:33:07.791Z,4.17
2019-05-03T17:38:12.228Z,2.95
2019-05-03T17:43:35.402Z,2.65
2019-05-03T17:46:09.766Z,2.95
2019-05-03T17:48:45.409Z,2.95
2019-05-03T17:51:36.916Z,2.45
2019-05-03T17:54:28.948Z,2.92
2019-05-03T17:57:09.483Z,2.52
2019-05-03T17:59:51.378Z,2.60
2019-05-03T18:02:35.594Z,2.90
2019-05-03T18:05:29.438Z,2.83
2019-05-03T18:08:14.236Z,2.58
2019-05-03T18:10:55.041Z,2.37
2019-05-03T18:13:29.147Z,2.83
2019-05-03T18:16:04.740Z,2.75
2019-05-03T18:18:38.196Z,3.17
2019-05-03T18:23:45.415Z,2.02
2019-05-03T18:26:18.938Z,5.60
2019-05-03T18:28:52.438Z,5.65
2019-05-03T18:31:26.109Z,7.30
2019-05-03T18:34:00.055Z,9.35
2019-05-03T18:36:34.660Z,9.80
2019-05-03T18:39:11.483Z,7.22
2019-05-03T18:41:46.171Z,7.75
2019-05-03T18:44:25.976Z,6.92
2019-05-03T18:47:02.884Z,6.70
2019-05-03T18:49:36.304Z,7.08
2019-05-03T18:54:44.391Z,5.50
2019-05-03T18:57:17.926Z,6.45
2019-05-03T18:59:51.258Z,6.05
2019-05-03T19:04:58.696Z,5.62
2019-05-03T19:07:49.574Z,4.83
2019-05-03T19:10:29.402Z,5.10
2019-05-03T19:13:15.443Z,4.47
2019-05-03T19:15:49.425Z,4.00
2019-05-03T19:18:27.441Z,4.35
2019-05-03T19:21:01.179Z,3.55
2019-05-03T19:23:35.498Z,3.37
2019-05-03T19:26:08.784Z,3.05
2019-05-03T19:28:44.413Z,3.12
2019-05-03T19:31:17.247Z,2.92
2019-05-03T19:33:50.327Z,2.80
2019-05-03T19:36:23.139Z,3.08
2019-05-03T19:38:55.638Z,3.55
2019-05-03T19:41:28.749Z,3.58
2019-05-03T19:46:32.614Z,3.30
2019-05-03T19:51:38.156Z,3.62
2019-05-03T19:54:11.851Z,3.52
2019-05-03T19:56:46.850Z,3.83
2019-05-03T19:59:38.107Z,3.35
2019-05-03T20:02:36.155Z,3.75
2019-05-03T20:05:20.079Z,3.90
2019-05-03T20:08:21.598Z,3.70
2019-05-03T20:11:14.831Z,3.08
2019-05-03T20:13:48.978Z,3.92
2019-05-03T20:16:27.058Z,3.22
2019-05-03T20:19:17.081Z,3.47
2019-05-03T20:21:38.428Z,3.35
2019-05-03T20:24:12.110Z,3.62
2019-05-03T20:26:45.736Z,3.58
2019-05-03T20:29:19.123Z,3.10
2019-05-03T20:34:24.854Z,2.75
2019-05-03T20:36:59.093Z,2.95
2019-05-03T20:39:34.685Z,4.25
2019-05-03T20:42:08.414Z,3.15
2019-05-03T20:44:58.750Z,4.03
2019-05-03T20:47:47.116Z,3.70
2019-05-03T20:50:20.871Z,3.12
2019-05-03T20:52:54.989Z,3.37
2019-05-03T20:55:29.084Z,4.40
2019-05-03T20:58:02.741Z,3.25
2019-05-03T21:00:36.134Z,3.62
2019-05-03T21:05:40.593Z,2.25
2019-05-03T21:08:14.820Z,3.65
2019-05-03T21:10:48.518Z,3.58
2019-05-03T21:13:21.517Z,3.08
2019-05-03T21:16:07.221Z,3.05
2019-05-03T21:18:52.326Z,2.65
2019-05-03T21:21:41.624Z,3.22
2019-05-03T21:24:20.056Z,3.22
2019-05-03T21:26:54.756Z,2.60
2019-05-03T21:29:27.732Z,2.90
2019-05-03T21:32:00.636Z,3.10
2019-05-03T21:34:34.578Z,3.02
2019-05-03T21:37:08.681Z,2.77
2019-05-03T21:39:45.430Z,3.05
2019-05-03T21:42:18.963Z,2.80
2019-05-03T21:47:35.151Z,2.58
2019-05-03T21:50:10.983Z,3.08
2019-05-03T21:52:45.790Z,3.10
2019-05-03T21:55:19.645Z,3.52
2019-05-03T21:57:55.272Z,2.85
2019-05-03T22:00:42.665Z,2.75
2019-05-03T22:03:16.290Z,2.72
2019-05-03T22:05:54.903Z,3.10
2019-05-03T22:08:26.690Z,3.12
2019-05-03T22:11:05.506Z,3.00
2019-05-03T22:13:40.644Z,2.72
2019-05-03T22:16:24.653Z,3.15
2019-05-03T22:18:58.816Z,2.87
2019-05-03T22:21:45.263Z,2.92
2019-05-03T22:24:50.035Z,3.22
2019-05-03T22:27:24.779Z,3.45
2019-05-03T22:29:58.952Z,3.17
2019-05-03T22:32:35.361Z,3.05
2019-05-03T22:35:10.123Z,3.35
2019-05-03T22:37:44.782Z,3.92
2019-05-03T22:40:18.721Z,3.42
2019-05-03T22:42:52.763Z,3.22
2019-05-03T22:45:26.017Z,3.70
2019-05-03T22:48:00.151Z,3.85
2019-05-03T22:50:34.454Z,3.75
2019-05-03T22:53:08.920Z,3.67
2019-05-03T22:55:42.060Z,3.52
2019-05-03T22:58:15.997Z,3.80
2019-05-03T23:00:49.323Z,3.92
2019-05-03T23:03:22.454Z,3.50
2019-05-03T23:05:56.027Z,4.08
2019-05-03T23:08:29.654Z,3.55
2019-05-03T23:11:05.596Z,4.20
2019-05-03T23:13:38.983Z,4.22
2019-05-03T23:16:14.316Z,3.67
2019-05-03T23:18:47.619Z,3.85
2019-05-03T23:23:54.993Z,2.77
2019-05-03T23:26:28.964Z,4.83
2019-05-03T23:29:02.006Z,4.17
2019-05-03T23:31:35.482Z,4.17
2019-05-03T23:34:08.936Z,4.50
2019-05-03T23:39:14.978Z,3.45
2019-05-03T23:41:49.425Z,3.98
2019-05-03T23:44:24.455Z,3.87
2019-05-03T23:47:15.429Z,4.03
2019-05-03T23:49:48.605Z,4.12
2019-05-03T23:52:37.859Z,4.08
2019-05-03T23:55:39.947Z,4.97
2019-05-03T23:58:13.386Z,4.10
